Chester Gap, Virginia
Current Conditions -  °F | °C
As of 8:35 PM on Monday 24 Nov 2014 (Local Time) from KFRR Reporting Station
Clear Clear  
Wind Chill: 63°   Ceiling: Unl
Heat Index: 63°   Visibility: 10mi
Dew Point: 50°   Wind: 8mph
Humidity: 63%   Direction: 210°SSW
Pressure: 29.69"   Gusts: 16mph
Location:  38.85°N, 78.14°W
Report Text: KFRR 250135Z AUTO 21007G14KT 10SM CLR 17/10 A2969 RMK AO1
Loading
Personal Weather Stations






























Interactive Weather Map New forecast layout! Learn more

10-Day Weather Forecast

Advertisements
Track Severe Weather on mobile